Terminal Aerodrome Forecast
Issued by NWS Mt. Holly, NJ

Home | Current Version | Previous Version | Text Only | Print | Product List | Glossary On
Versions: 1 2 3 4 5 6 7 8 9 10 11 12 13
000
FTUS41 KPHI 261740
TAFILG
TAF
KILG 261740Z 2618/2718 34008KT P6SM SCT060
     FM262300 29007KT P6SM FEW060
     FM270600 31009KT P6SM SCT080
     FM271300 32010G18KT P6SM BKN080=

USA.gov is the U.S. government's official web portal to all federal, state and local government web resources and services.